Terminal Aerodrome Forecast
Issued by NWS

Home | Current Version | Previous Version | Text Only | Print | Product List | Glossary On
Versions: 1 2 3 4 5 6 7 8 9 10 11 12 13 14 15 16 17 18
000
FTUS46 KSEW 010500
TAFBFI
TAF
KBFI 010520Z 0106/0206 16004KT P6SM SCT030 BKN050
      TEMPO 0106/0110 BKN030 OVC050
     FM011000 00000KT P6SM SCT018 OVC030
      TEMPO 0112/0116 5SM BR BKN007
     FM011800 VRB03KT P6SM BKN250=

USA.gov is the U.S. government's official web portal to all federal, state and local government web resources and services.